sensor_id;sensor_type;location;lat;lon;timestamp;temperature;humidity
4215;DHT22;2121;48.062;7.850;2023-01-24T00:00:28;3.50;99.90
4215;DHT22;2121;48.062;7.850;2023-01-24T00:02:54;3.40;99.90
4215;DHT22;2121;48.062;7.850;2023-01-24T00:05:20;3.40;99.90
4215;DHT22;2121;48.062;7.850;2023-01-24T00:07:46;3.40;99.90
4215;DHT22;2121;48.062;7.850;2023-01-24T00:10:12;3.40;99.90
4215;DHT22;2121;48.062;7.850;2023-01-24T00:12:38;3.40;99.90
4215;DHT22;2121;48.062;7.850;2023-01-24T00:15:05;3.40;99.90
4215;DHT22;2121;48.062;7.850;2023-01-24T00:17:32;3.40;99.90
4215;DHT22;2121;48.062;7.850;2023-01-24T00:19:57;3.40;99.90
4215;DHT22;2121;48.062;7.850;2023-01-24T00:22:23;3.40;99.90
4215;DHT22;2121;48.062;7.850;2023-01-24T00:24:49;3.00;99.90
4215;DHT22;2121;48.062;7.850;2023-01-24T00:27:16;2.50;99.90
4215;DHT22;2121;48.062;7.850;2023-01-24T00:29:42;2.20;99.90
4215;DHT22;2121;48.062;7.850;2023-01-24T00:32:08;2.00;99.90
4215;DHT22;2121;48.062;7.850;2023-01-24T00:34:34;1.90;99.90
4215;DHT22;2121;48.062;7.850;2023-01-24T00:37:00;1.90;99.90
4215;DHT22;2121;48.062;7.850;2023-01-24T00:39:25;1.90;99.90
4215;DHT22;2121;48.062;7.850;2023-01-24T00:41:51;1.80;99.90
4215;DHT22;2121;48.062;7.850;2023-01-24T00:44:17;1.80;99.90
4215;DHT22;2121;48.062;7.850;2023-01-24T00:46:42;1.80;99.90
4215;DHT22;2121;48.062;7.850;2023-01-24T00:49:08;1.80;99.90
4215;DHT22;2121;48.062;7.850;2023-01-24T00:51:34;1.80;99.90
4215;DHT22;2121;48.062;7.850;2023-01-24T00:54:00;1.70;99.90
4215;DHT22;2121;48.062;7.850;2023-01-24T00:56:26;1.80;99.90
4215;DHT22;2121;48.062;7.850;2023-01-24T00:58:52;1.80;99.90
4215;DHT22;2121;48.062;7.850;2023-01-24T01:01:17;1.80;99.90
4215;DHT22;2121;48.062;7.850;2023-01-24T01:03:43;1.80;99.90
4215;DHT22;2121;48.062;7.850;2023-01-24T01:06:14;1.80;99.90
4215;DHT22;2121;48.062;7.850;2023-01-24T01:08:41;1.80;99.90
4215;DHT22;2121;48.062;7.850;2023-01-24T01:11:07;1.80;99.90
4215;DHT22;2121;48.062;7.850;2023-01-24T01:13:33;1.80;99.90
4215;DHT22;2121;48.062;7.850;2023-01-24T01:16:09;1.80;99.90
4215;DHT22;2121;48.062;7.850;2023-01-24T01:18:37;1.80;99.90
4215;DHT22;2121;48.062;7.850;2023-01-24T01:21:05;1.90;99.90
4215;DHT22;2121;48.062;7.850;2023-01-24T01:23:31;1.90;99.90
4215;DHT22;2121;48.062;7.850;2023-01-24T01:26:02;1.90;99.90
4215;DHT22;2121;48.062;7.850;2023-01-24T01:28:29;1.90;99.90
4215;DHT22;2121;48.062;7.850;2023-01-24T01:30:55;2.00;99.90
4215;DHT22;2121;48.062;7.850;2023-01-24T01:33:22;2.00;99.90
4215;DHT22;2121;48.062;7.850;2023-01-24T01:35:49;2.00;99.90
4215;DHT22;2121;48.062;7.850;2023-01-24T01:38:15;2.00;99.90
4215;DHT22;2121;48.062;7.850;2023-01-24T01:40:42;2.00;99.90
4215;DHT22;2121;48.062;7.850;2023-01-24T01:43:20;2.00;99.90
4215;DHT22;2121;48.062;7.850;2023-01-24T01:45:48;2.00;99.90
4215;DHT22;2121;48.062;7.850;2023-01-24T01:48:34;2.00;99.90
4215;DHT22;2121;48.062;7.850;2023-01-24T01:54:08;2.00;99.90
4215;DHT22;2121;48.062;7.850;2023-01-24T01:57:10;2.10;99.90
4215;DHT22;2121;48.062;7.850;2023-01-24T01:59:46;2.20;99.90
4215;DHT22;2121;48.062;7.850;2023-01-24T02:02:14;2.20;99.90
4215;DHT22;2121;48.062;7.850;2023-01-24T02:04:44;2.20;99.90
4215;DHT22;2121;48.062;7.850;2023-01-24T02:07:22;2.20;99.90
4215;DHT22;2121;48.062;7.850;2023-01-24T02:09:52;2.20;99.90
4215;DHT22;2121;48.062;7.850;2023-01-24T02:12:24;2.10;99.90
4215;DHT22;2121;48.062;7.850;2023-01-24T02:14:53;2.10;99.90
4215;DHT22;2121;48.062;7.850;2023-01-24T02:17:40;2.20;99.90
4215;DHT22;2121;48.062;7.850;2023-01-24T02:26:14;2.20;99.90
4215;DHT22;2121;48.062;7.850;2023-01-24T02:29:06;2.20;99.90
4215;DHT22;2121;48.062;7.850;2023-01-24T02:34:24;2.30;99.90
4215;DHT22;2121;48.062;7.850;2023-01-24T02:36:59;2.30;99.90
4215;DHT22;2121;48.062;7.850;2023-01-24T02:39:44;2.30;99.90
4215;DHT22;2121;48.062;7.850;2023-01-24T02:42:20;2.30;99.90
4215;DHT22;2121;48.062;7.850;2023-01-24T02:45:05;2.30;99.90
4215;DHT22;2121;48.062;7.850;2023-01-24T02:47:38;2.30;99.90
4215;DHT22;2121;48.062;7.850;2023-01-24T02:50:07;2.30;99.90
4215;DHT22;2121;48.062;7.850;2023-01-24T02:52:34;2.30;99.90
4215;DHT22;2121;48.062;7.850;2023-01-24T02:55:19;2.30;99.90
4215;DHT22;2121;48.062;7.850;2023-01-24T02:57:45;2.30;99.90
4215;DHT22;2121;48.062;7.850;2023-01-24T03:00:29;2.30;99.90
4215;DHT22;2121;48.062;7.850;2023-01-24T03:02:55;2.30;99.90
4215;DHT22;2121;48.062;7.850;2023-01-24T03:05:21;2.30;99.90
4215;DHT22;2121;48.062;7.850;2023-01-24T03:07:47;2.20;99.90
4215;DHT22;2121;48.062;7.850;2023-01-24T03:10:18;2.20;99.90
4215;DHT22;2121;48.062;7.850;2023-01-24T03:12:44;2.30;99.90
4215;DHT22;2121;48.062;7.850;2023-01-24T03:15:29;2.30;99.90
4215;DHT22;2121;48.062;7.850;2023-01-24T03:18:13;2.30;99.90
4215;DHT22;2121;48.062;7.850;2023-01-24T03:20:58;2.30;99.90
4215;DHT22;2121;48.062;7.850;2023-01-24T03:23:42;2.30;99.90
4215;DHT22;2121;48.062;7.850;2023-01-24T03:26:26;2.40;99.90
4215;DHT22;2121;48.062;7.850;2023-01-24T03:29:10;2.40;99.90
4215;DHT22;2121;48.062;7.850;2023-01-24T03:31:55;2.40;99.90
4215;DHT22;2121;48.062;7.850;2023-01-24T03:34:39;2.50;99.90
4215;DHT22;2121;48.062;7.850;2023-01-24T03:37:25;2.40;99.90
4215;DHT22;2121;48.062;7.850;2023-01-24T03:40:12;2.50;99.90
4215;DHT22;2121;48.062;7.850;2023-01-24T03:42:40;2.50;99.90
4215;DHT22;2121;48.062;7.850;2023-01-24T03:45:34;2.50;99.90
4215;DHT22;2121;48.062;7.850;2023-01-24T03:48:03;2.50;99.90
4215;DHT22;2121;48.062;7.850;2023-01-24T03:50:36;2.50;99.90
4215;DHT22;2121;48.062;7.850;2023-01-24T03:53:26;2.50;99.90
4215;DHT22;2121;48.062;7.850;2023-01-24T03:55:56;2.50;99.90
4215;DHT22;2121;48.062;7.850;2023-01-24T03:58:24;2.60;99.90
4215;DHT22;2121;48.062;7.850;2023-01-24T04:00:52;2.50;99.90
4215;DHT22;2121;48.062;7.850;2023-01-24T04:03:19;2.50;99.90
4215;DHT22;2121;48.062;7.850;2023-01-24T04:05:49;2.50;99.90
4215;DHT22;2121;48.062;7.850;2023-01-24T04:08:16;2.60;99.90
4215;DHT22;2121;48.062;7.850;2023-01-24T04:10:42;2.60;99.90
4215;DHT22;2121;48.062;7.850;2023-01-24T04:13:09;2.60;99.90
4215;DHT22;2121;48.062;7.850;2023-01-24T04:15:35;2.60;99.90
4215;DHT22;2121;48.062;7.850;2023-01-24T04:18:03;2.60;99.90
4215;DHT22;2121;48.062;7.850;2023-01-24T04:20:31;2.60;99.90
4215;DHT22;2121;48.062;7.850;2023-01-24T04:23:04;2.60;99.90
4215;DHT22;2121;48.062;7.850;2023-01-24T04:25:32;2.70;99.90
4215;DHT22;2121;48.062;7.850;2023-01-24T04:27:58;2.60;99.90
4215;DHT22;2121;48.062;7.850;2023-01-24T04:30:25;2.70;99.90
4215;DHT22;2121;48.062;7.850;2023-01-24T04:32:51;2.70;99.90
4215;DHT22;2121;48.062;7.850;2023-01-24T04:35:19;2.60;99.90
4215;DHT22;2121;48.062;7.850;2023-01-24T04:37:47;2.60;99.90
4215;DHT22;2121;48.062;7.850;2023-01-24T04:40:13;2.60;99.90
4215;DHT22;2121;48.062;7.850;2023-01-24T04:42:40;2.60;99.90
4215;DHT22;2121;48.062;7.850;2023-01-24T04:45:07;2.60;99.90
4215;DHT22;2121;48.062;7.850;2023-01-24T04:47:33;2.60;99.90
4215;DHT22;2121;48.062;7.850;2023-01-24T04:49:59;2.60;99.90
4215;DHT22;2121;48.062;7.850;2023-01-24T04:52:25;2.70;99.90
4215;DHT22;2121;48.062;7.850;2023-01-24T04:54:50;2.70;99.90
4215;DHT22;2121;48.062;7.850;2023-01-24T04:57:17;2.70;99.90
4215;DHT22;2121;48.062;7.850;2023-01-24T04:59:43;2.70;99.90
4215;DHT22;2121;48.062;7.850;2023-01-24T05:02:09;2.60;99.90
4215;DHT22;2121;48.062;7.850;2023-01-24T05:04:35;2.60;99.90
4215;DHT22;2121;48.062;7.850;2023-01-24T05:07:01;2.70;99.90
4215;DHT22;2121;48.062;7.850;2023-01-24T05:09:27;2.70;99.90
4215;DHT22;2121;48.062;7.850;2023-01-24T05:11:53;2.70;99.90
4215;DHT22;2121;48.062;7.850;2023-01-24T05:14:19;2.70;99.90
4215;DHT22;2121;48.062;7.850;2023-01-24T05:16:44;2.70;99.90
4215;DHT22;2121;48.062;7.850;2023-01-24T05:19:10;2.80;99.90
4215;DHT22;2121;48.062;7.850;2023-01-24T05:21:36;2.80;99.90
4215;DHT22;2121;48.062;7.850;2023-01-24T05:24:02;2.70;99.90
4215;DHT22;2121;48.062;7.850;2023-01-24T05:26:28;2.70;99.90
4215;DHT22;2121;48.062;7.850;2023-01-24T05:28:54;2.70;99.90
4215;DHT22;2121;48.062;7.850;2023-01-24T05:31:20;2.60;99.90
4215;DHT22;2121;48.062;7.850;2023-01-24T05:33:46;2.50;99.90
4215;DHT22;2121;48.062;7.850;2023-01-24T05:36:15;2.40;99.90
4215;DHT22;2121;48.062;7.850;2023-01-24T05:38:42;2.40;99.90
4215;DHT22;2121;48.062;7.850;2023-01-24T05:41:11;2.30;99.90
4215;DHT22;2121;48.062;7.850;2023-01-24T05:43:38;2.20;99.90
4215;DHT22;2121;48.062;7.850;2023-01-24T05:46:10;2.20;99.90
4215;DHT22;2121;48.062;7.850;2023-01-24T05:48:41;2.20;99.90
4215;DHT22;2121;48.062;7.850;2023-01-24T05:51:13;2.20;99.90
4215;DHT22;2121;48.062;7.850;2023-01-24T05:53:41;2.20;99.90
4215;DHT22;2121;48.062;7.850;2023-01-24T05:56:12;2.40;99.90
4215;DHT22;2121;48.062;7.850;2023-01-24T05:58:40;2.50;99.90
4215;DHT22;2121;48.062;7.850;2023-01-24T06:01:12;2.40;99.90
4215;DHT22;2121;48.062;7.850;2023-01-24T06:03:41;2.40;99.90
4215;DHT22;2121;48.062;7.850;2023-01-24T06:06:10;2.40;99.90
4215;DHT22;2121;48.062;7.850;2023-01-24T06:08:36;2.30;99.90
4215;DHT22;2121;48.062;7.850;2023-01-24T06:11:04;2.20;99.90
4215;DHT22;2121;48.062;7.850;2023-01-24T06:13:32;2.20;99.90
4215;DHT22;2121;48.062;7.850;2023-01-24T06:16:02;2.20;99.90
4215;DHT22;2121;48.062;7.850;2023-01-24T06:18:29;2.20;99.90
4215;DHT22;2121;48.062;7.850;2023-01-24T06:20:55;2.20;99.90
4215;DHT22;2121;48.062;7.850;2023-01-24T06:23:27;2.20;99.90
4215;DHT22;2121;48.062;7.850;2023-01-24T06:25:54;2.20;99.90
4215;DHT22;2121;48.062;7.850;2023-01-24T06:28:20;2.20;99.90
4215;DHT22;2121;48.062;7.850;2023-01-24T06:30:59;2.10;99.90
4215;DHT22;2121;48.062;7.850;2023-01-24T06:36:50;2.10;99.90
4215;DHT22;2121;48.062;7.850;2023-01-24T06:39:50;2.10;99.90
4215;DHT22;2121;48.062;7.850;2023-01-24T06:42:21;2.20;99.90
4215;DHT22;2121;48.062;7.850;2023-01-24T06:44:48;2.20;99.90
4215;DHT22;2121;48.062;7.850;2023-01-24T06:47:15;2.20;99.90
4215;DHT22;2121;48.062;7.850;2023-01-24T06:49:41;2.20;99.90
4215;DHT22;2121;48.062;7.850;2023-01-24T06:52:07;2.20;99.90
4215;DHT22;2121;48.062;7.850;2023-01-24T06:54:34;2.20;99.90
4215;DHT22;2121;48.062;7.850;2023-01-24T06:57:01;2.30;99.90
4215;DHT22;2121;48.062;7.850;2023-01-24T06:59:27;2.30;99.90
4215;DHT22;2121;48.062;7.850;2023-01-24T07:01:53;2.30;99.90
4215;DHT22;2121;48.062;7.850;2023-01-24T07:04:19;2.40;99.90
4215;DHT22;2121;48.062;7.850;2023-01-24T07:06:44;2.40;99.90
4215;DHT22;2121;48.062;7.850;2023-01-24T07:09:10;2.30;99.90
4215;DHT22;2121;48.062;7.850;2023-01-24T07:11:36;2.40;99.90
4215;DHT22;2121;48.062;7.850;2023-01-24T07:14:02;2.30;99.90
4215;DHT22;2121;48.062;7.850;2023-01-24T07:16:28;2.40;99.90
4215;DHT22;2121;48.062;7.850;2023-01-24T07:18:54;2.40;99.90
4215;DHT22;2121;48.062;7.850;2023-01-24T07:21:20;2.40;99.90
4215;DHT22;2121;48.062;7.850;2023-01-24T07:23:48;2.40;99.90
4215;DHT22;2121;48.062;7.850;2023-01-24T07:26:14;2.50;99.90
4215;DHT22;2121;48.062;7.850;2023-01-24T07:28:41;2.40;99.90
4215;DHT22;2121;48.062;7.850;2023-01-24T07:31:08;2.50;99.90
4215;DHT22;2121;48.062;7.850;2023-01-24T07:33:36;2.50;99.90
4215;DHT22;2121;48.062;7.850;2023-01-24T07:36:11;2.50;99.90
4215;DHT22;2121;48.062;7.850;2023-01-24T07:38:38;2.50;99.90
4215;DHT22;2121;48.062;7.850;2023-01-24T07:41:08;2.50;99.90
4215;DHT22;2121;48.062;7.850;2023-01-24T07:43:34;2.50;99.90
4215;DHT22;2121;48.062;7.850;2023-01-24T07:46:00;2.50;99.90
4215;DHT22;2121;48.062;7.850;2023-01-24T07:48:26;2.50;99.90
4215;DHT22;2121;48.062;7.850;2023-01-24T07:50:51;2.50;99.90
4215;DHT22;2121;48.062;7.850;2023-01-24T07:53:17;2.50;99.90
4215;DHT22;2121;48.062;7.850;2023-01-24T07:55:43;2.50;99.90
4215;DHT22;2121;48.062;7.850;2023-01-24T07:58:08;2.60;99.90
4215;DHT22;2121;48.062;7.850;2023-01-24T08:00:34;2.60;99.90
4215;DHT22;2121;48.062;7.850;2023-01-24T08:03:00;2.60;99.90
4215;DHT22;2121;48.062;7.850;2023-01-24T08:05:25;2.70;99.90
4215;DHT22;2121;48.062;7.850;2023-01-24T08:07:53;2.70;99.90
4215;DHT22;2121;48.062;7.850;2023-01-24T08:10:19;2.80;99.90
4215;DHT22;2121;48.062;7.850;2023-01-24T08:12:47;2.90;99.90
4215;DHT22;2121;48.062;7.850;2023-01-24T08:15:15;3.10;99.90
4215;DHT22;2121;48.062;7.850;2023-01-24T08:17:40;3.20;99.90
4215;DHT22;2121;48.062;7.850;2023-01-24T08:20:07;3.30;99.90
4215;DHT22;2121;48.062;7.850;2023-01-24T08:22:34;3.40;99.90
4215;DHT22;2121;48.062;7.850;2023-01-24T08:25:00;3.50;99.90
4215;DHT22;2121;48.062;7.850;2023-01-24T08:27:25;3.60;99.90
4215;DHT22;2121;48.062;7.850;2023-01-24T08:29:52;3.50;99.90
4215;DHT22;2121;48.062;7.850;2023-01-24T08:32:18;3.30;99.90
4215;DHT22;2121;48.062;7.850;2023-01-24T08:34:44;3.20;99.90
4215;DHT22;2121;48.062;7.850;2023-01-24T08:37:09;3.10;99.90
4215;DHT22;2121;48.062;7.850;2023-01-24T08:39:35;3.00;99.90
4215;DHT22;2121;48.062;7.850;2023-01-24T08:42:01;2.90;99.90
4215;DHT22;2121;48.062;7.850;2023-01-24T08:44:26;2.90;99.90
4215;DHT22;2121;48.062;7.850;2023-01-24T08:46:52;2.90;99.90
4215;DHT22;2121;48.062;7.850;2023-01-24T08:49:18;2.90;99.90
4215;DHT22;2121;48.062;7.850;2023-01-24T08:51:43;2.90;99.90
4215;DHT22;2121;48.062;7.850;2023-01-24T08:54:10;3.00;99.90
4215;DHT22;2121;48.062;7.850;2023-01-24T08:56:36;3.00;99.90
4215;DHT22;2121;48.062;7.850;2023-01-24T08:59:01;3.10;99.90
4215;DHT22;2121;48.062;7.850;2023-01-24T09:01:27;3.20;99.90
4215;DHT22;2121;48.062;7.850;2023-01-24T09:03:53;3.20;99.90
4215;DHT22;2121;48.062;7.850;2023-01-24T09:06:24;3.20;99.90
4215;DHT22;2121;48.062;7.850;2023-01-24T09:08:54;3.20;99.90
4215;DHT22;2121;48.062;7.850;2023-01-24T09:11:20;3.30;99.90
4215;DHT22;2121;48.062;7.850;2023-01-24T09:13:47;3.30;99.90
4215;DHT22;2121;48.062;7.850;2023-01-24T09:16:12;3.30;99.90
4215;DHT22;2121;48.062;7.850;2023-01-24T09:18:38;3.30;99.90
4215;DHT22;2121;48.062;7.850;2023-01-24T09:21:04;3.40;99.90
4215;DHT22;2121;48.062;7.850;2023-01-24T09:23:30;3.50;99.90
4215;DHT22;2121;48.062;7.850;2023-01-24T09:25:56;3.60;99.90
4215;DHT22;2121;48.062;7.850;2023-01-24T09:28:22;3.70;99.90
4215;DHT22;2121;48.062;7.850;2023-01-24T09:30:48;3.70;99.90
4215;DHT22;2121;48.062;7.850;2023-01-24T09:33:15;3.60;99.90
4215;DHT22;2121;48.062;7.850;2023-01-24T09:35:50;3.60;99.90
4215;DHT22;2121;48.062;7.850;2023-01-24T09:38:17;3.60;99.90
4215;DHT22;2121;48.062;7.850;2023-01-24T09:40:50;3.60;99.90
4215;DHT22;2121;48.062;7.850;2023-01-24T09:43:43;3.60;99.90
4215;DHT22;2121;48.062;7.850;2023-01-24T09:49:21;3.60;99.90
4215;DHT22;2121;48.062;7.850;2023-01-24T09:51:53;3.70;99.90
4215;DHT22;2121;48.062;7.850;2023-01-24T09:57:19;3.80;99.90
4215;DHT22;2121;48.062;7.850;2023-01-24T09:59:57;3.90;99.90
4215;DHT22;2121;48.062;7.850;2023-01-24T10:02:29;4.00;99.90
4215;DHT22;2121;48.062;7.850;2023-01-24T10:04:54;4.10;99.90
4215;DHT22;2121;48.062;7.850;2023-01-24T10:07:25;4.00;99.90
4215;DHT22;2121;48.062;7.850;2023-01-24T10:24:35;4.80;99.90
4215;DHT22;2121;48.062;7.850;2023-01-24T10:27:15;4.90;99.90
4215;DHT22;2121;48.062;7.850;2023-01-24T10:29:43;4.90;99.90
4215;DHT22;2121;48.062;7.850;2023-01-24T10:32:14;4.80;99.90
4215;DHT22;2121;48.062;7.850;2023-01-24T10:34:43;4.70;99.90
4215;DHT22;2121;48.062;7.850;2023-01-24T10:37:26;4.70;99.90
4215;DHT22;2121;48.062;7.850;2023-01-24T10:39:54;4.80;99.90
4215;DHT22;2121;48.062;7.850;2023-01-24T10:42:28;4.90;99.90
4215;DHT22;2121;48.062;7.850;2023-01-24T10:45:00;4.80;99.90
4215;DHT22;2121;48.062;7.850;2023-01-24T10:50:41;5.00;99.90
4215;DHT22;2121;48.062;7.850;2023-01-24T10:53:14;5.20;99.90
4215;DHT22;2121;48.062;7.850;2023-01-24T10:55:48;5.50;99.90
4215;DHT22;2121;48.062;7.850;2023-01-24T10:58:32;5.90;99.90
4215;DHT22;2121;48.062;7.850;2023-01-24T11:01:07;5.90;99.90
4215;DHT22;2121;48.062;7.850;2023-01-24T11:03:43;6.00;99.90
4215;DHT22;2121;48.062;7.850;2023-01-24T11:06:33;6.20;99.90
4215;DHT22;2121;48.062;7.850;2023-01-24T11:09:16;6.60;99.90
4215;DHT22;2121;48.062;7.850;2023-01-24T11:11:55;6.90;99.90
4215;DHT22;2121;48.062;7.850;2023-01-24T11:14:27;7.00;99.90
4215;DHT22;2121;48.062;7.850;2023-01-24T11:16:58;7.20;99.90
4215;DHT22;2121;48.062;7.850;2023-01-24T11:19:32;7.40;99.90
4215;DHT22;2121;48.062;7.850;2023-01-24T11:22:20;7.30;99.90
4215;DHT22;2121;48.062;7.850;2023-01-24T11:24:56;7.10;99.90
4215;DHT22;2121;48.062;7.850;2023-01-24T11:27:23;7.40;99.90
4215;DHT22;2121;48.062;7.850;2023-01-24T11:35:34;7.30;99.90
4215;DHT22;2121;48.062;7.850;2023-01-24T11:55:39;7.40;99.90
4215;DHT22;2121;48.062;7.850;2023-01-24T12:13:38;7.50;99.90
4215;DHT22;2121;48.062;7.850;2023-01-24T12:19:33;7.80;99.90
4215;DHT22;2121;48.062;7.850;2023-01-24T12:22:00;7.90;99.90
4215;DHT22;2121;48.062;7.850;2023-01-24T12:24:31;7.80;99.90
4215;DHT22;2121;48.062;7.850;2023-01-24T12:27:02;7.80;99.90
4215;DHT22;2121;48.062;7.850;2023-01-24T12:29:57;7.80;99.90
4215;DHT22;2121;48.062;7.850;2023-01-24T12:38:29;8.00;99.90
4215;DHT22;2121;48.062;7.850;2023-01-24T12:41:22;7.70;99.90
4215;DHT22;2121;48.062;7.850;2023-01-24T12:49:56;7.80;99.90
4215;DHT22;2121;48.062;7.850;2023-01-24T12:57:50;7.40;99.90
4215;DHT22;2121;48.062;7.850;2023-01-24T13:00:23;7.20;99.90
4215;DHT22;2121;48.062;7.850;2023-01-24T13:11:06;7.00;99.90
4215;DHT22;2121;48.062;7.850;2023-01-24T13:20:01;6.70;99.90
4215;DHT22;2121;48.062;7.850;2023-01-24T13:36:40;6.30;99.90
4215;DHT22;2121;48.062;7.850;2023-01-24T13:39:06;6.30;99.90
4215;DHT22;2121;48.062;7.850;2023-01-24T13:41:35;6.30;99.90
4215;DHT22;2121;48.062;7.850;2023-01-24T13:49:18;6.30;99.90
4215;DHT22;2121;48.062;7.850;2023-01-24T13:51:56;6.30;99.90
4215;DHT22;2121;48.062;7.850;2023-01-24T14:07:59;5.90;99.90
4215;DHT22;2121;48.062;7.850;2023-01-24T14:10:37;5.80;99.90
4215;DHT22;2121;48.062;7.850;2023-01-24T14:13:40;5.70;99.90
4215;DHT22;2121;48.062;7.850;2023-01-24T14:16:11;5.70;99.90
4215;DHT22;2121;48.062;7.850;2023-01-24T14:21:16;5.50;99.90
4215;DHT22;2121;48.062;7.850;2023-01-24T14:23:47;5.50;99.90
4215;DHT22;2121;48.062;7.850;2023-01-24T14:26:18;5.50;99.90
4215;DHT22;2121;48.062;7.850;2023-01-24T14:28:53;5.50;99.90
4215;DHT22;2121;48.062;7.850;2023-01-24T14:31:31;5.50;99.90
4215;DHT22;2121;48.062;7.850;2023-01-24T14:36:41;5.60;99.90
4215;DHT22;2121;48.062;7.850;2023-01-24T14:41:47;5.50;99.90
4215;DHT22;2121;48.062;7.850;2023-01-24T14:44:29;5.50;99.90
4215;DHT22;2121;48.062;7.850;2023-01-24T14:47:05;5.40;99.90
4215;DHT22;2121;48.062;7.850;2023-01-24T14:49:59;5.40;99.90
4215;DHT22;2121;48.062;7.850;2023-01-24T14:52:31;5.30;99.90
4215;DHT22;2121;48.062;7.850;2023-01-24T14:55:30;5.30;99.90
4215;DHT22;2121;48.062;7.850;2023-01-24T14:57:56;5.30;99.90
4215;DHT22;2121;48.062;7.850;2023-01-24T15:00:23;5.30;99.90
4215;DHT22;2121;48.062;7.850;2023-01-24T15:05:27;5.30;99.90
4215;DHT22;2121;48.062;7.850;2023-01-24T15:08:06;5.40;99.90
4215;DHT22;2121;48.062;7.850;2023-01-24T15:10:41;5.30;99.90
4215;DHT22;2121;48.062;7.850;2023-01-24T15:13:19;5.20;99.90
4215;DHT22;2121;48.062;7.850;2023-01-24T15:15:47;5.10;99.90
4215;DHT22;2121;48.062;7.850;2023-01-24T15:18:36;5.00;99.90
4215;DHT22;2121;48.062;7.850;2023-01-24T15:21:12;5.00;99.90
4215;DHT22;2121;48.062;7.850;2023-01-24T15:23:42;5.10;99.90
4215;DHT22;2121;48.062;7.850;2023-01-24T15:26:39;5.10;99.90
4215;DHT22;2121;48.062;7.850;2023-01-24T15:29:36;5.10;99.90
4215;DHT22;2121;48.062;7.850;2023-01-24T15:32:49;5.20;99.90
4215;DHT22;2121;48.062;7.850;2023-01-24T15:35:13;5.20;99.90
4215;DHT22;2121;48.062;7.850;2023-01-24T15:37:42;5.20;99.90
4215;DHT22;2121;48.062;7.850;2023-01-24T15:40:18;5.30;99.90
4215;DHT22;2121;48.062;7.850;2023-01-24T15:42:46;5.30;99.90
4215;DHT22;2121;48.062;7.850;2023-01-24T15:45:36;5.30;99.90
4215;DHT22;2121;48.062;7.850;2023-01-24T15:48:17;5.20;99.90
4215;DHT22;2121;48.062;7.850;2023-01-24T15:50:53;5.10;99.90
4215;DHT22;2121;48.062;7.850;2023-01-24T15:53:42;5.00;99.90
4215;DHT22;2121;48.062;7.850;2023-01-24T15:56:14;5.00;99.90
4215;DHT22;2121;48.062;7.850;2023-01-24T15:58:47;5.00;99.90
4215;DHT22;2121;48.062;7.850;2023-01-24T16:01:14;4.90;99.90
4215;DHT22;2121;48.062;7.850;2023-01-24T16:03:40;4.90;99.90
4215;DHT22;2121;48.062;7.850;2023-01-24T16:06:06;4.80;99.90
4215;DHT22;2121;48.062;7.850;2023-01-24T16:08:32;4.70;99.90
4215;DHT22;2121;48.062;7.850;2023-01-24T16:10:58;4.80;99.90
4215;DHT22;2121;48.062;7.850;2023-01-24T16:13:28;4.80;99.90
4215;DHT22;2121;48.062;7.850;2023-01-24T16:15:58;4.70;99.90
4215;DHT22;2121;48.062;7.850;2023-01-24T16:18:25;4.70;99.90
4215;DHT22;2121;48.062;7.850;2023-01-24T16:20:51;4.60;99.90
4215;DHT22;2121;48.062;7.850;2023-01-24T16:23:17;4.60;99.90
4215;DHT22;2121;48.062;7.850;2023-01-24T16:25:44;4.50;99.90
4215;DHT22;2121;48.062;7.850;2023-01-24T16:28:24;4.50;99.90
4215;DHT22;2121;48.062;7.850;2023-01-24T16:30:53;4.50;99.90
4215;DHT22;2121;48.062;7.850;2023-01-24T16:33:20;4.50;99.90
4215;DHT22;2121;48.062;7.850;2023-01-24T16:35:47;4.50;99.90
4215;DHT22;2121;48.062;7.850;2023-01-24T16:38:13;4.50;99.90
4215;DHT22;2121;48.062;7.850;2023-01-24T16:40:40;4.50;99.90
4215;DHT22;2121;48.062;7.850;2023-01-24T16:43:07;4.50;99.90
4215;DHT22;2121;48.062;7.850;2023-01-24T16:45:45;4.50;99.90
4215;DHT22;2121;48.062;7.850;2023-01-24T16:48:12;4.40;99.90
4215;DHT22;2121;48.062;7.850;2023-01-24T16:50:42;4.40;99.90
4215;DHT22;2121;48.062;7.850;2023-01-24T16:53:09;4.50;99.90
4215;DHT22;2121;48.062;7.850;2023-01-24T16:55:35;4.40;99.90
4215;DHT22;2121;48.062;7.850;2023-01-24T16:58:09;4.50;99.90
4215;DHT22;2121;48.062;7.850;2023-01-24T17:00:36;4.50;99.90
4215;DHT22;2121;48.062;7.850;2023-01-24T17:03:03;4.50;99.90
4215;DHT22;2121;48.062;7.850;2023-01-24T17:05:30;4.40;99.90
4215;DHT22;2121;48.062;7.850;2023-01-24T17:07:56;4.40;99.90
4215;DHT22;2121;48.062;7.850;2023-01-24T17:10:23;4.40;99.90
4215;DHT22;2121;48.062;7.850;2023-01-24T17:12:50;4.40;99.90
4215;DHT22;2121;48.062;7.850;2023-01-24T17:15:16;4.50;99.90
4215;DHT22;2121;48.062;7.850;2023-01-24T17:17:42;4.40;99.90
4215;DHT22;2121;48.062;7.850;2023-01-24T17:20:10;4.30;99.90
4215;DHT22;2121;48.062;7.850;2023-01-24T17:22:37;4.30;99.90
4215;DHT22;2121;48.062;7.850;2023-01-24T17:25:04;4.30;99.90
4215;DHT22;2121;48.062;7.850;2023-01-24T17:27:30;4.30;99.90
4215;DHT22;2121;48.062;7.850;2023-01-24T17:29:56;4.40;99.90
4215;DHT22;2121;48.062;7.850;2023-01-24T17:32:22;4.30;99.90
4215;DHT22;2121;48.062;7.850;2023-01-24T17:34:48;4.40;99.90
4215;DHT22;2121;48.062;7.850;2023-01-24T17:37:14;4.30;99.90
4215;DHT22;2121;48.062;7.850;2023-01-24T17:39:39;4.30;99.90
4215;DHT22;2121;48.062;7.850;2023-01-24T17:42:05;4.30;99.90
4215;DHT22;2121;48.062;7.850;2023-01-24T17:44:31;4.20;99.90
4215;DHT22;2121;48.062;7.850;2023-01-24T17:46:57;4.20;99.90
4215;DHT22;2121;48.062;7.850;2023-01-24T17:49:23;4.30;99.90
4215;DHT22;2121;48.062;7.850;2023-01-24T17:51:49;4.20;99.90
4215;DHT22;2121;48.062;7.850;2023-01-24T17:54:15;4.30;99.90
4215;DHT22;2121;48.062;7.850;2023-01-24T17:56:42;4.30;99.90
4215;DHT22;2121;48.062;7.850;2023-01-24T17:59:08;4.20;99.90
4215;DHT22;2121;48.062;7.850;2023-01-24T18:01:34;4.20;99.90
4215;DHT22;2121;48.062;7.850;2023-01-24T18:04:01;4.20;99.90
4215;DHT22;2121;48.062;7.850;2023-01-24T18:06:29;4.30;99.90
4215;DHT22;2121;48.062;7.850;2023-01-24T18:08:56;4.20;99.90
4215;DHT22;2121;48.062;7.850;2023-01-24T18:11:21;4.20;99.90
4215;DHT22;2121;48.062;7.850;2023-01-24T18:13:47;4.30;99.90
4215;DHT22;2121;48.062;7.850;2023-01-24T18:16:15;4.10;99.90
4215;DHT22;2121;48.062;7.850;2023-01-24T18:18:43;4.10;99.90
4215;DHT22;2121;48.062;7.850;2023-01-24T18:21:09;4.10;99.90
4215;DHT22;2121;48.062;7.850;2023-01-24T18:23:36;4.10;99.90
4215;DHT22;2121;48.062;7.850;2023-01-24T18:26:03;4.20;99.90
4215;DHT22;2121;48.062;7.850;2023-01-24T18:28:33;4.00;99.90
4215;DHT22;2121;48.062;7.850;2023-01-24T18:31:03;3.90;99.90
4215;DHT22;2121;48.062;7.850;2023-01-24T18:33:30;3.90;99.90
4215;DHT22;2121;48.062;7.850;2023-01-24T18:35:56;3.90;99.90
4215;DHT22;2121;48.062;7.850;2023-01-24T18:38:21;4.00;99.90
4215;DHT22;2121;48.062;7.850;2023-01-24T18:40:48;4.00;99.90
4215;DHT22;2121;48.062;7.850;2023-01-24T18:43:13;3.90;99.90
4215;DHT22;2121;48.062;7.850;2023-01-24T18:45:39;3.90;99.90
4215;DHT22;2121;48.062;7.850;2023-01-24T18:48:05;4.10;99.90
4215;DHT22;2121;48.062;7.850;2023-01-24T18:50:31;3.90;99.90
4215;DHT22;2121;48.062;7.850;2023-01-24T18:52:56;3.80;99.90
4215;DHT22;2121;48.062;7.850;2023-01-24T18:55:22;3.80;99.90
4215;DHT22;2121;48.062;7.850;2023-01-24T18:57:48;3.80;99.90
4215;DHT22;2121;48.062;7.850;2023-01-24T19:00:14;3.70;99.90
4215;DHT22;2121;48.062;7.850;2023-01-24T19:02:46;3.60;99.90
4215;DHT22;2121;48.062;7.850;2023-01-24T19:05:12;3.60;99.90
4215;DHT22;2121;48.062;7.850;2023-01-24T19:07:39;3.50;99.90
4215;DHT22;2121;48.062;7.850;2023-01-24T19:10:07;3.50;99.90
4215;DHT22;2121;48.062;7.850;2023-01-24T19:12:33;3.50;99.90